Time,TemperatureF,DewpointF,PressureIn,WindDirection,WindDirectionDegrees,WindSpeedMPH,WindSpeedGustMPH,Humidity,HourlyPrecipIn,Conditions,Clouds,dailyrainin,SolarRadiationWatts/m^2,SoftwareType,DateUTC
2013-07-24 00:32:00,55.0,21.0,-100.00,WNW,283,0.0,0.0,26,0.00,,,-99.99,0.000000,,2013-07-24 07:32:00,
2013-07-24 00:43:00,55.0,21.0,-100.00,WNW,283,0.0,0.0,26,0.00,,,-99.99,0.000000,,2013-07-24 07:43:00,
2013-07-24 01:32:00,55.0,21.0,-100.00,West,278,0.0,5.0,26,0.00,,,-99.99,0.000000,,2013-07-24 08:32:00,
2013-07-24 01:42:00,55.0,21.0,-100.00,West,278,0.0,5.0,26,0.00,,,-99.99,0.000000,,2013-07-24 08:42:00,
2013-07-24 01:52:00,55.0,21.0,-100.00,West,278,0.0,5.0,26,0.00,,,-99.99,0.000000,,2013-07-24 08:52:00,
2013-07-24 02:43:00,53.0,23.0,-100.00,West,273,0.0,3.0,31,0.00,,,0.00,0.000000,,2013-07-24 09:43:00,
2013-07-24 04:22:00,53.0,25.0,-100.00,WSW,254,0.0,4.0,34,0.00,,,0.00,0.000000,,2013-07-24 11:22:00,
2013-07-24 04:32:00,53.0,25.0,-100.00,WSW,254,0.0,4.0,34,0.00,,,0.00,0.000000,,2013-07-24 11:32:00,
2013-07-24 04:43:00,53.0,25.0,-100.00,WSW,254,0.0,4.0,34,0.00,,,0.00,0.000000,,2013-07-24 11:43:00,
2013-07-24 04:52:00,53.0,25.0,-100.00,WSW,254,0.0,4.0,34,0.00,,,0.00,0.000000,,2013-07-24 11:52:00,
2013-07-24 05:52:00,50.0,25.0,-100.00,WNW,282,0.0,3.0,38,0.00,,,-99.99,0.000000,,2013-07-24 12:52:00,
2013-07-24 06:22:00,50.0,27.0,-100.00,West,273,0.0,4.0,41,-99.99,,,0.00,0.000000,,2013-07-24 13:22:00,
2013-07-24 06:55:00,53.0,33.0,-100.00,West,272,0.0,3.0,46,-99.99,,,0.00,29.000000,,2013-07-24 13:55:00,
2013-07-24 07:43:00,53.0,33.0,-100.00,West,272,0.0,3.0,46,-99.99,,,0.00,29.000000,,2013-07-24 14:43:00,
2013-07-24 08:32:00,58.0,43.0,-100.00,WNW,296,0.0,0.0,57,0.00,,,0.00,88.000000,,2013-07-24 15:32:00,
2013-07-24 08:43:00,58.0,43.0,-100.00,WNW,296,0.0,0.0,57,0.00,,,0.00,88.000000,,2013-07-24 15:43:00,
2013-07-24 08:52:00,58.0,43.0,-100.00,WNW,296,0.0,0.0,57,0.00,,,0.00,88.000000,,2013-07-24 15:52:00,
2013-07-24 09:32:00,71.0,37.0,-100.00,NE,48,0.0,0.0,29,0.00,,,0.00,174.000000,,2013-07-24 16:32:00,
2013-07-24 09:43:00,71.0,37.0,-100.00,NE,48,0.0,0.0,29,0.00,,,0.00,174.000000,,2013-07-24 16:43:00,
2013-07-24 09:53:00,71.0,37.0,-100.00,NE,48,0.0,0.0,29,0.00,,,0.00,174.000000,,2013-07-24 16:53:00,
2013-07-24 10:33:00,74.0,39.0,-100.00,ESE,102,0.0,0.0,28,0.00,,,0.00,287.000000,,2013-07-24 17:33:00,
2013-07-24 10:43:00,74.0,39.0,-100.00,ESE,102,0.0,0.0,28,0.00,,,0.00,287.000000,,2013-07-24 17:43:00,
2013-07-24 10:53:00,74.0,39.0,-100.00,ESE,102,0.0,0.0,28,0.00,,,0.00,287.000000,,2013-07-24 17:53:00,
2013-07-24 12:43:00,83.0,40.0,-100.00,East,99,0.0,5.0,22,-99.99,,,-99.99,684.000000,,2013-07-24 19:43:00,
2013-07-24 12:53:00,83.0,40.0,-100.00,East,99,0.0,5.0,22,-99.99,,,-99.99,684.000000,,2013-07-24 19:53:00,
2013-07-24 13:52:00,85.0,42.0,-100.00,ESE,116,0.0,5.0,22,0.00,,,0.00,614.000000,,2013-07-24 20:52:00,
2013-07-24 14:32:00,85.0,37.0,-100.00,East,101,0.0,6.0,18,-99.99,,,0.00,423.000000,,2013-07-24 21:32:00,
2013-07-24 14:43:00,85.0,37.0,-100.00,East,101,0.0,6.0,18,-99.99,,,0.00,423.000000,,2013-07-24 21:43:00,
2013-07-24 14:52:00,85.0,37.0,-100.00,East,101,0.0,6.0,18,-99.99,,,0.00,423.000000,,2013-07-24 21:52:00,
2013-07-24 15:43:00,85.0,37.0,-100.00,SSE,156,1.0,8.0,18,0.00,,,0.00,449.000000,,2013-07-24 22:43:00,
2013-07-24 15:53:00,85.0,37.0,-100.00,SSE,156,1.0,8.0,18,0.00,,,0.00,449.000000,,2013-07-24 22:53:00,
2013-07-24 17:33:00,86.0,35.0,-100.00,NW,307,0.0,9.0,16,-99.99,,,0.00,473.000000,,2013-07-25 00:33:00,
2013-07-24 18:22:00,81.0,35.0,-100.00,NW,323,0.0,10.0,19,-99.99,,,0.00,302.000000,,2013-07-25 01:22:00,
2013-07-24 18:32:00,81.0,35.0,-100.00,NW,323,0.0,10.0,19,-99.99,,,0.00,302.000000,,2013-07-25 01:32:00,
2013-07-24 18:42:00,81.0,35.0,-100.00,NW,323,0.0,10.0,19,-99.99,,,0.00,302.000000,,2013-07-25 01:42:00,
2013-07-24 18:52:00,81.0,35.0,-100.00,NW,323,0.0,10.0,19,-99.99,,,0.00,302.000000,,2013-07-25 01:52:00,
2013-07-24 19:22:00,76.0,40.0,-100.00,West,274,0.0,6.0,27,0.00,,,0.00,183.000000,,2013-07-25 02:22:00,
2013-07-24 19:33:00,76.0,40.0,-100.00,West,274,0.0,6.0,27,0.00,,,0.00,183.000000,,2013-07-25 02:33:00,
2013-07-24 19:43:00,76.0,40.0,-100.00,West,274,0.0,6.0,27,0.00,,,0.00,183.000000,,2013-07-25 02:43:00,
2013-07-24 19:52:00,76.0,40.0,-100.00,West,274,0.0,6.0,27,0.00,,,0.00,183.000000,,2013-07-25 02:52:00,
2013-07-24 20:34:00,71.0,42.0,-100.00,West,265,0.0,5.0,35,0.00,,,0.00,59.000000,,2013-07-25 03:34:00,
2013-07-24 20:44:00,71.0,42.0,-100.00,West,265,0.0,5.0,35,0.00,,,0.00,59.000000,,2013-07-25 03:44:00,
2013-07-24 20:52:00,71.0,42.0,-100.00,West,265,0.0,5.0,35,0.00,,,0.00,59.000000,,2013-07-25 03:52:00,
2013-07-24 21:43:00,63.0,44.0,-100.00,West,265,0.0,7.0,50,0.00,,,0.00,9.000000,,2013-07-25 04:43:00,
2013-07-24 21:53:00,63.0,44.0,-100.00,West,265,0.0,7.0,50,0.00,,,0.00,9.000000,,2013-07-25 04:53:00,
2013-07-24 22:43:00,59.0,43.0,-100.00,WNW,286,0.0,0.0,56,0.00,,,0.00,0.000000,,2013-07-25 05:43:00,
2013-07-24 22:52:00,59.0,43.0,-100.00,WNW,286,0.0,0.0,56,0.00,,,0.00,0.000000,,2013-07-25 05:52:00,
2013-07-24 23:22:00,57.0,42.0,-100.00,WNW,301,0.0,0.0,57,0.00,,,0.00,0.000000,,2013-07-25 06:22:00,
2013-07-24 23:32:00,57.0,42.0,-100.00,WNW,301,0.0,0.0,57,0.00,,,0.00,0.000000,,2013-07-25 06:32:00,
2013-07-24 23:42:00,57.0,42.0,-100.00,WNW,301,0.0,0.0,57,0.00,,,0.00,0.000000,,2013-07-25 06:42:00,
2013-07-24 23:52:00,57.0,42.0,-100.00,WNW,301,0.0,0.0,57,0.00,,,0.00,0.000000,,2013-07-25 06:52:00,